createdAt,value
2022-10-18T00:00:14.015Z,1.60
2022-10-18T00:01:13.987Z,1.60
2022-10-18T00:02:14.061Z,2.30
2022-10-18T00:03:13.997Z,2.30
2022-10-18T00:04:13.968Z,1.80
2022-10-18T00:05:14.258Z,1.60
2022-10-18T00:06:13.950Z,1.30
2022-10-18T00:07:13.966Z,1.80
2022-10-18T00:08:13.928Z,1.70
2022-10-18T00:09:13.997Z,2.60
2022-10-18T00:10:13.958Z,2.50
2022-10-18T00:11:13.882Z,1.90
2022-10-18T00:12:14.157Z,2.30
2022-10-18T00:13:13.871Z,2.10
2022-10-18T00:14:13.855Z,2.40
2022-10-18T00:15:13.871Z,2.10
2022-10-18T00:16:13.836Z,2.60
2022-10-18T00:17:13.913Z,2.10
2022-10-18T00:18:13.826Z,2.60
2022-10-18T00:19:14.127Z,1.90
2022-10-18T00:20:13.843Z,2.00
2022-10-18T00:21:13.809Z,2.50
2022-10-18T00:22:13.772Z,1.60
2022-10-18T00:23:13.749Z,1.50
2022-10-18T00:24:13.761Z,1.80
2022-10-18T00:25:13.734Z,2.30
2022-10-18T00:26:14.010Z,1.60
2022-10-18T00:27:13.749Z,1.70
2022-10-18T00:28:13.720Z,1.20
2022-10-18T00:29:13.680Z,1.60
2022-10-18T00:30:13.701Z,1.70
2022-10-18T00:31:13.670Z,1.70
2022-10-18T00:32:13.686Z,1.60
2022-10-18T00:33:14.013Z,1.30
2022-10-18T00:34:13.688Z,2.30
2022-10-18T00:35:13.616Z,1.60
2022-10-18T00:36:13.624Z,2.50
2022-10-18T00:37:13.608Z,2.20
2022-10-18T00:38:13.600Z,2.70
2022-10-18T00:39:13.701Z,2.20
2022-10-18T00:40:13.873Z,2.60
2022-10-18T00:41:13.572Z,2.50
2022-10-18T00:42:13.548Z,2.50
2022-10-18T00:43:13.596Z,2.10
2022-10-18T00:44:13.533Z,2.10
2022-10-18T00:45:13.572Z,2.40
2022-10-18T00:46:13.504Z,2.30
2022-10-18T00:47:13.889Z,2.30
2022-10-18T00:48:13.488Z,1.40
2022-10-18T00:49:13.462Z,1.90
2022-10-18T00:50:13.469Z,2.70
2022-10-18T00:51:13.492Z,1.60
2022-10-18T00:52:13.445Z,1.60
2022-10-18T00:53:13.548Z,1.70
2022-10-18T00:54:13.714Z,1.90
2022-10-18T00:55:13.414Z,1.10
2022-10-18T00:56:13.425Z,2.10
2022-10-18T00:57:13.440Z,3.40
2022-10-18T00:58:13.370Z,1.90
2022-10-18T00:59:13.424Z,2.50
2022-10-18T01:00:13.351Z,1.70
2022-10-18T01:01:13.721Z,1.60
2022-10-18T01:02:13.420Z,1.50
2022-10-18T01:03:13.351Z,1.90
2022-10-18T01:04:13.304Z,1.70
2022-10-18T01:05:13.318Z,2.10
2022-10-18T01:06:13.298Z,1.70
2022-10-18T01:07:13.271Z,2.60
2022-10-18T01:08:13.553Z,1.50
2022-10-18T01:09:13.278Z,3.30
2022-10-18T01:10:13.280Z,1.80
2022-10-18T01:11:13.227Z,2.70
2022-10-18T01:12:13.224Z,2.00
2022-10-18T01:13:13.207Z,2.00
2022-10-18T01:14:13.211Z,2.40
2022-10-18T01:15:13.530Z,2.20
2022-10-18T01:16:13.197Z,1.90
2022-10-18T01:17:13.165Z,2.20
2022-10-18T01:18:13.168Z,2.10
2022-10-18T01:19:13.162Z,2.60
2022-10-18T01:20:13.135Z,1.20
2022-10-18T01:21:13.167Z,2.50
2022-10-18T01:22:13.127Z,2.10
2022-10-18T01:23:13.101Z,1.70
2022-10-18T01:24:13.093Z,1.90
2022-10-18T01:25:13.083Z,2.10
2022-10-18T01:26:13.074Z,1.90
2022-10-18T01:27:13.435Z,2.20
2022-10-18T01:28:13.057Z,2.30
2022-10-18T01:29:13.051Z,2.30
2022-10-18T01:30:13.077Z,2.60
2022-10-18T01:31:13.013Z,2.40
2022-10-18T01:32:13.011Z,1.90
2022-10-18T01:33:13.027Z,2.00
2022-10-18T01:34:12.984Z,2.90
2022-10-18T01:35:12.974Z,2.80
2022-10-18T01:36:12.965Z,2.00
2022-10-18T01:37:12.949Z,2.60
2022-10-18T01:38:12.949Z,1.50
2022-10-18T01:39:13.261Z,2.40
2022-10-18T01:40:12.922Z,2.60
2022-10-18T01:41:15.654Z,2.10
2022-10-18T01:42:12.921Z,1.60
2022-10-18T01:43:12.907Z,2.10
2022-10-18T01:44:12.883Z,3.20
2022-10-18T01:45:12.900Z,3.40
2022-10-18T01:46:13.135Z,1.30
2022-10-18T01:47:12.838Z,1.60
2022-10-18T01:48:12.858Z,2.00
2022-10-18T01:49:12.833Z,2.30
2022-10-18T01:50:12.890Z,2.50
2022-10-18T01:51:12.830Z,2.60
2022-10-18T01:52:12.800Z,2.30
2022-10-18T01:53:13.080Z,1.30
2022-10-18T01:54:12.771Z,3.20
2022-10-18T01:55:12.839Z,2.50
2022-10-18T01:56:12.745Z,1.50
2022-10-18T01:57:12.757Z,2.60
2022-10-18T01:58:12.758Z,2.50
2022-10-18T01:59:12.730Z,2.60
2022-10-18T02:00:12.982Z,2.20
2022-10-18T02:01:12.701Z,2.40
2022-10-18T02:02:12.702Z,1.40
2022-10-18T02:03:12.711Z,1.10
2022-10-18T02:04:12.671Z,1.80
2022-10-18T02:05:12.660Z,2.20
2022-10-18T02:06:12.637Z,1.90
2022-10-18T02:07:12.898Z,1.60
2022-10-18T02:08:22.725Z,2.90
2022-10-18T02:09:12.642Z,2.10
2022-10-18T02:10:12.596Z,1.80
2022-10-18T02:11:12.629Z,1.90
2022-10-18T02:12:12.576Z,1.70
2022-10-18T02:13:12.569Z,1.40
2022-10-18T02:14:12.823Z,1.50
2022-10-18T02:15:12.572Z,2.30
2022-10-18T02:16:12.532Z,2.40
2022-10-18T02:17:12.543Z,2.30
2022-10-18T02:18:12.534Z,2.40
2022-10-18T02:19:12.510Z,1.20
2022-10-18T02:20:12.500Z,2.50
2022-10-18T02:21:12.795Z,2.50
2022-10-18T02:22:12.547Z,1.60
2022-10-18T02:23:12.494Z,1.70
2022-10-18T02:24:12.462Z,2.30
2022-10-18T02:25:12.477Z,1.50
2022-10-18T02:26:12.498Z,2.10
2022-10-18T02:27:12.450Z,2.10
2022-10-18T02:28:12.755Z,1.70
2022-10-18T02:29:12.387Z,1.80
2022-10-18T02:30:12.375Z,1.80
2022-10-18T02:31:12.398Z,2.20
2022-10-18T02:32:12.360Z,2.80
2022-10-18T02:33:12.386Z,2.10
2022-10-18T02:34:12.352Z,2.20
2022-10-18T02:35:12.621Z,1.70
2022-10-18T02:36:12.841Z,2.40
2022-10-18T02:37:12.300Z,2.10
2022-10-18T02:38:12.293Z,1.30
2022-10-18T02:39:12.323Z,2.50
2022-10-18T02:40:12.286Z,1.50
2022-10-18T02:41:12.263Z,2.60
2022-10-18T02:42:12.524Z,2.30
2022-10-18T02:43:12.239Z,2.10
2022-10-18T02:44:12.231Z,2.30
2022-10-18T02:45:12.269Z,3.90
2022-10-18T02:46:12.199Z,2.30
2022-10-18T02:47:12.196Z,2.60
2022-10-18T02:48:12.212Z,2.80
2022-10-18T02:49:12.555Z,2.00
2022-10-18T02:50:12.177Z,2.20
2022-10-18T02:51:12.223Z,1.90
2022-10-18T02:52:12.134Z,1.70
2022-10-18T02:53:12.130Z,2.70
2022-10-18T02:54:12.148Z,1.90
2022-10-18T02:55:12.132Z,2.40
2022-10-18T02:56:12.431Z,1.80
2022-10-18T02:57:12.124Z,2.10
2022-10-18T02:58:12.067Z,1.90
2022-10-18T02:59:12.081Z,1.60
2022-10-18T03:00:12.057Z,3.10
2022-10-18T03:01:12.115Z,1.80
2022-10-18T03:02:12.042Z,1.60
2022-10-18T03:03:12.352Z,1.90
2022-10-18T03:04:12.081Z,2.00
2022-10-18T03:05:12.044Z,2.40
2022-10-18T03:06:11.992Z,1.80
2022-10-18T03:07:11.978Z,2.10
2022-10-18T03:08:11.966Z,2.10
2022-10-18T03:09:11.993Z,1.60
2022-10-18T03:10:12.231Z,2.40
2022-10-18T03:11:11.937Z,2.00
2022-10-18T03:12:11.927Z,1.40
2022-10-18T03:13:11.920Z,2.60
2022-10-18T03:14:11.906Z,2.10
2022-10-18T03:15:11.942Z,1.60
2022-10-18T03:16:11.889Z,2.00
2022-10-18T03:17:12.155Z,2.00
2022-10-18T03:18:11.863Z,1.30
2022-10-18T03:19:11.853Z,1.60
2022-10-18T03:20:11.950Z,1.80
2022-10-18T03:21:11.925Z,1.90
2022-10-18T03:22:11.817Z,3.00
2022-10-18T03:23:11.815Z,1.50
2022-10-18T03:24:12.076Z,2.60
2022-10-18T03:25:11.846Z,1.00
2022-10-18T03:26:11.781Z,2.40
2022-10-18T03:27:11.793Z,2.00
2022-10-18T03:28:11.754Z,2.00
2022-10-18T03:29:11.763Z,2.00
2022-10-18T03:30:11.765Z,2.30
2022-10-18T03:31:11.996Z,2.20
2022-10-18T03:32:11.721Z,2.30
2022-10-18T03:33:11.735Z,1.60
2022-10-18T03:34:11.686Z,1.60
2022-10-18T03:35:11.678Z,2.40
2022-10-18T03:36:11.660Z,1.60
2022-10-18T03:37:11.663Z,3.20
2022-10-18T03:38:11.977Z,1.60
2022-10-18T03:39:11.668Z,2.70
2022-10-18T03:40:11.636Z,1.90
2022-10-18T03:41:11.621Z,2.30
2022-10-18T03:42:11.621Z,2.20
2022-10-18T03:43:11.657Z,1.80
2022-10-18T03:44:11.593Z,2.40
2022-10-18T03:45:11.901Z,2.10
2022-10-18T03:46:11.551Z,2.50
2022-10-18T03:47:11.558Z,1.30
2022-10-18T03:48:11.576Z,2.40
2022-10-18T03:49:11.588Z,2.90
2022-10-18T03:50:11.537Z,1.70
2022-10-18T03:51:11.537Z,2.50
2022-10-18T03:52:11.823Z,1.90
2022-10-18T03:53:11.519Z,0.90
2022-10-18T03:54:11.465Z,2.70
2022-10-18T03:55:11.469Z,1.60
2022-10-18T03:56:11.447Z,2.30
2022-10-18T03:57:11.488Z,2.50
2022-10-18T03:58:11.432Z,2.30
2022-10-18T03:59:11.746Z,2.20
2022-10-18T04:00:11.432Z,2.40
2022-10-18T04:01:11.535Z,2.60
2022-10-18T04:02:11.397Z,2.10
2022-10-18T04:03:11.420Z,3.30
2022-10-18T04:04:11.375Z,2.20
2022-10-18T04:05:11.357Z,2.50
2022-10-18T04:06:11.620Z,2.40
2022-10-18T04:07:11.341Z,1.20
2022-10-18T04:08:11.318Z,2.70
2022-10-18T04:09:11.353Z,2.90
2022-10-18T04:10:11.297Z,3.00
2022-10-18T04:11:11.327Z,1.90
2022-10-18T04:12:11.289Z,1.90
2022-10-18T04:13:11.285Z,2.00
2022-10-18T04:14:11.248Z,2.40
2022-10-18T04:15:11.275Z,2.00
2022-10-18T04:16:11.249Z,3.50
2022-10-18T04:17:11.240Z,2.00
2022-10-18T04:18:11.213Z,2.60
2022-10-18T04:19:11.507Z,1.60
2022-10-18T04:20:11.189Z,2.80
2022-10-18T04:21:11.232Z,2.40
2022-10-18T04:22:11.178Z,2.60
2022-10-18T04:23:11.165Z,2.10
2022-10-18T04:24:11.158Z,1.90
2022-10-18T04:25:11.157Z,3.60
2022-10-18T04:26:11.405Z,2.60
2022-10-18T04:27:11.143Z,2.40
2022-10-18T04:28:11.101Z,3.00
2022-10-18T04:29:11.186Z,2.00
2022-10-18T04:30:11.086Z,2.10
2022-10-18T04:31:11.083Z,2.30
2022-10-18T04:32:11.065Z,3.40
2022-10-18T04:33:11.395Z,2.00
2022-10-18T04:34:11.052Z,1.60
2022-10-18T04:35:11.038Z,1.60
2022-10-18T04:36:11.040Z,2.60
2022-10-18T04:37:11.026Z,1.50
2022-10-18T04:38:11.006Z,1.50
2022-10-18T04:39:11.052Z,3.00
2022-10-18T04:40:11.258Z,1.90
2022-10-18T04:41:10.973Z,2.20
2022-10-18T04:42:10.964Z,2.80
2022-10-18T04:43:10.956Z,1.80
2022-10-18T04:44:10.942Z,1.70
2022-10-18T04:45:10.964Z,2.30
2022-10-18T04:46:10.927Z,1.80
2022-10-18T04:47:11.230Z,3.00
2022-10-18T04:48:10.896Z,2.30
2022-10-18T04:49:10.893Z,2.90
2022-10-18T04:50:10.876Z,2.40
2022-10-18T04:51:10.916Z,2.20
2022-10-18T04:52:10.850Z,1.90
2022-10-18T04:53:10.857Z,2.00
2022-10-18T04:54:11.126Z,2.30
2022-10-18T04:55:10.843Z,2.20
2022-10-18T04:56:10.833Z,2.00
2022-10-18T04:57:10.867Z,2.40
2022-10-18T04:58:10.792Z,1.70
2022-10-18T04:59:10.778Z,2.20
2022-10-18T05:00:10.780Z,2.30
2022-10-18T05:01:11.093Z,2.00
2022-10-18T05:02:10.755Z,1.70
2022-10-18T05:03:10.790Z,1.90
2022-10-18T05:04:10.730Z,2.40
2022-10-18T05:05:13.939Z,1.40
2022-10-18T05:06:10.701Z,2.70
2022-10-18T05:07:10.699Z,2.10
2022-10-18T05:08:10.706Z,1.70
2022-10-18T05:09:10.710Z,1.40
2022-10-18T05:10:10.656Z,2.70
2022-10-18T05:12:10.653Z,2.10
2022-10-18T05:13:10.635Z,2.00
2022-10-18T05:14:10.899Z,1.40
2022-10-18T05:15:10.640Z,2.60
2022-10-18T05:16:10.605Z,2.70
2022-10-18T05:17:10.608Z,1.60
2022-10-18T05:18:10.581Z,1.50
2022-10-18T05:19:10.560Z,2.30
2022-10-18T05:20:10.697Z,2.60
2022-10-18T05:21:10.618Z,1.80
2022-10-18T05:22:10.539Z,2.50
2022-10-18T05:23:10.534Z,2.00
2022-10-18T05:24:10.504Z,2.10
2022-10-18T05:25:10.506Z,2.10
2022-10-18T05:26:10.836Z,3.70
2022-10-18T05:27:10.532Z,2.60
2022-10-18T05:28:10.925Z,1.70
2022-10-18T05:29:10.584Z,2.50
2022-10-18T05:30:10.482Z,1.40
2022-10-18T05:31:10.440Z,2.90
2022-10-18T05:32:11.981Z,3.70
2022-10-18T05:33:11.971Z,2.50
2022-10-18T05:34:12.987Z,2.00
2022-10-18T05:35:10.387Z,2.60
2022-10-18T05:36:10.400Z,3.10
2022-10-18T05:37:10.385Z,2.30
2022-10-18T05:38:10.642Z,1.60
2022-10-18T05:39:10.382Z,2.40
2022-10-18T05:40:10.366Z,2.30
2022-10-18T05:41:10.361Z,2.30
2022-10-18T05:42:10.340Z,2.20
2022-10-18T05:43:10.320Z,2.60
2022-10-18T05:44:10.308Z,2.20
2022-10-18T05:45:10.634Z,2.10
2022-10-18T05:46:14.779Z,2.00
2022-10-18T05:47:10.289Z,1.70
2022-10-18T05:48:10.255Z,2.50
2022-10-18T05:49:10.284Z,2.30
2022-10-18T05:50:10.233Z,2.30
2022-10-18T05:51:10.285Z,2.30
2022-10-18T05:52:10.489Z,2.70
2022-10-18T05:53:12.364Z,2.40
2022-10-18T05:54:10.212Z,2.10
2022-10-18T05:55:10.218Z,3.50
2022-10-18T05:56:10.163Z,2.70
2022-10-18T05:57:10.284Z,1.60
2022-10-18T05:58:10.185Z,3.00
2022-10-18T05:59:10.455Z,2.60
2022-10-18T06:00:10.132Z,1.50
2022-10-18T06:01:10.137Z,1.40
2022-10-18T06:02:10.157Z,1.80
2022-10-18T06:03:10.168Z,3.30
2022-10-18T06:04:10.107Z,2.20
2022-10-18T06:05:10.136Z,3.00
2022-10-18T06:06:10.405Z,2.20
2022-10-18T06:07:10.082Z,2.30
2022-10-18T06:08:10.392Z,1.30
2022-10-18T06:09:10.090Z,2.40
2022-10-18T06:10:10.026Z,2.70
2022-10-18T06:11:10.053Z,2.00
2022-10-18T06:12:10.079Z,2.30
2022-10-18T06:13:10.187Z,1.20
2022-10-18T06:14:10.005Z,1.40
2022-10-18T06:15:10.022Z,1.20
2022-10-18T06:16:09.953Z,2.40
2022-10-18T06:17:10.004Z,2.10
2022-10-18T06:18:09.991Z,2.60
2022-10-18T06:19:10.212Z,3.00
2022-10-18T06:20:09.957Z,3.10
2022-10-18T06:21:09.946Z,2.30
2022-10-18T06:22:09.894Z,2.40
2022-10-18T06:23:09.922Z,3.60
2022-10-18T06:24:09.890Z,2.20
2022-10-18T06:25:09.880Z,2.50
2022-10-18T06:26:09.866Z,2.00
2022-10-18T06:27:09.937Z,2.40
2022-10-18T06:28:11.508Z,2.10
2022-10-18T06:29:09.914Z,3.00
2022-10-18T06:30:09.836Z,2.80
2022-10-18T06:31:09.816Z,3.10
2022-10-18T06:32:09.810Z,2.70
2022-10-18T06:33:09.866Z,3.00
2022-10-18T06:34:09.819Z,1.90
2022-10-18T06:35:09.768Z,1.90
2022-10-18T06:36:09.773Z,3.50
2022-10-18T06:37:09.791Z,2.90
2022-10-18T06:38:10.035Z,3.00
2022-10-18T06:39:09.779Z,2.90
2022-10-18T06:40:09.786Z,3.20
2022-10-18T06:41:09.715Z,4.20
2022-10-18T06:42:09.682Z,2.60
2022-10-18T06:43:20.449Z,2.90
2022-10-18T06:44:09.712Z,3.10
2022-10-18T06:45:09.775Z,3.50
2022-10-18T06:46:09.705Z,4.80
2022-10-18T06:47:09.733Z,1.90
2022-10-18T06:48:09.779Z,2.80
2022-10-18T06:49:09.684Z,3.50
2022-10-18T06:50:09.903Z,3.80
2022-10-18T06:51:09.666Z,2.50
2022-10-18T06:52:09.591Z,4.70
2022-10-18T06:53:09.558Z,3.50
2022-10-18T06:54:18.366Z,4.20
2022-10-18T06:55:09.555Z,4.00
2022-10-18T06:56:10.094Z,2.90
2022-10-18T06:57:09.897Z,5.20
2022-10-18T06:58:09.519Z,3.40
2022-10-18T06:59:09.514Z,3.00
2022-10-18T07:00:09.573Z,3.60
2022-10-18T07:01:09.539Z,2.10
2022-10-18T07:02:09.536Z,3.40
2022-10-18T07:03:09.527Z,3.30
2022-10-18T07:04:09.749Z,4.20
2022-10-18T07:05:09.454Z,4.30
2022-10-18T07:06:09.483Z,2.80
2022-10-18T07:07:09.431Z,3.40
2022-10-18T07:08:09.475Z,2.90
2022-10-18T07:09:09.496Z,3.70
2022-10-18T07:10:12.930Z,3.80
2022-10-18T07:11:09.726Z,3.70
2022-10-18T07:12:09.378Z,5.10
2022-10-18T07:14:12.559Z,3.70
2022-10-18T07:15:09.696Z,2.30
2022-10-18T07:16:11.554Z,5.20
2022-10-18T07:17:09.304Z,3.80
2022-10-18T07:18:09.633Z,2.40
2022-10-18T07:19:09.335Z,3.70
2022-10-18T07:20:09.384Z,4.10
2022-10-18T07:21:09.414Z,2.80
2022-10-18T07:22:09.274Z,3.70
2022-10-18T07:23:09.310Z,3.30
2022-10-18T07:24:09.245Z,3.20
2022-10-18T07:25:09.559Z,3.90
2022-10-18T07:26:09.256Z,4.60
2022-10-18T07:27:09.317Z,3.60
2022-10-18T07:28:09.264Z,2.20
2022-10-18T07:29:09.317Z,4.90
2022-10-18T07:30:09.185Z,3.40
2022-10-18T07:31:09.631Z,2.80
2022-10-18T07:32:09.454Z,4.20
2022-10-18T07:33:09.215Z,5.20
2022-10-18T07:34:09.153Z,2.90
2022-10-18T07:35:09.189Z,3.40
2022-10-18T07:36:09.195Z,4.10
2022-10-18T07:37:09.157Z,3.50
2022-10-18T07:38:09.178Z,2.40
2022-10-18T07:39:09.218Z,3.90
2022-10-18T07:40:09.133Z,5.60
2022-10-18T07:41:09.113Z,3.10
2022-10-18T07:42:09.093Z,4.10
2022-10-18T07:43:12.000Z,4.30
2022-10-18T07:44:09.127Z,3.90
2022-10-18T07:45:09.423Z,3.70
2022-10-18T07:46:09.101Z,4.60
2022-10-18T07:47:08.983Z,3.70
2022-10-18T07:48:09.024Z,3.00
2022-10-18T07:49:09.034Z,2.90
2022-10-18T07:50:09.057Z,3.60
2022-10-18T07:51:09.061Z,5.00
2022-10-18T07:52:08.976Z,3.80
2022-10-18T07:53:08.980Z,3.00
2022-10-18T07:54:08.975Z,3.10
2022-10-18T07:55:08.944Z,5.10
2022-10-18T07:56:09.580Z,3.60
2022-10-18T07:57:08.955Z,4.50
2022-10-18T07:58:09.230Z,3.00
2022-10-18T07:59:08.877Z,3.30
2022-10-18T08:00:08.936Z,4.50
2022-10-18T08:01:08.988Z,3.30
2022-10-18T08:02:08.891Z,4.40
2022-10-18T08:03:08.965Z,4.00
2022-10-18T08:04:11.653Z,3.50
2022-10-18T08:05:08.890Z,2.80
2022-10-18T08:06:08.809Z,2.30
2022-10-18T08:07:08.839Z,3.70
2022-10-18T08:08:08.806Z,3.40
2022-10-18T08:09:08.853Z,5.30
2022-10-18T08:10:08.785Z,3.70
2022-10-18T08:11:09.008Z,3.60
2022-10-18T08:12:08.761Z,2.80
2022-10-18T08:13:08.767Z,2.90
2022-10-18T08:14:08.731Z,3.60
2022-10-18T08:15:08.863Z,2.70
2022-10-18T08:16:08.760Z,2.90
2022-10-18T08:17:08.686Z,3.10
2022-10-18T08:18:08.688Z,5.10
2022-10-18T08:19:08.720Z,4.80
2022-10-18T08:20:12.429Z,2.40
2022-10-18T08:21:08.781Z,3.50
2022-10-18T08:22:08.715Z,3.50
2022-10-18T08:23:08.940Z,3.20
2022-10-18T08:24:08.643Z,2.90
2022-10-18T08:25:08.671Z,4.40
2022-10-18T08:26:08.652Z,2.20
2022-10-18T08:27:08.681Z,3.10
2022-10-18T08:28:08.612Z,2.90
2022-10-18T08:29:22.990Z,3.40
2022-10-18T08:30:08.593Z,3.70
2022-10-18T08:31:08.510Z,3.10
2022-10-18T08:32:08.506Z,2.70
2022-10-18T08:33:08.664Z,3.70
2022-10-18T08:34:08.565Z,2.80
2022-10-18T08:35:09.462Z,3.10
2022-10-18T08:36:08.554Z,4.00
2022-10-18T08:37:08.475Z,4.60
2022-10-18T08:38:08.660Z,3.80
2022-10-18T08:39:08.517Z,3.30
2022-10-18T08:40:08.538Z,2.50
2022-10-18T08:41:08.404Z,3.20
2022-10-18T08:42:08.769Z,3.70
2022-10-18T08:43:08.418Z,3.60
2022-10-18T08:44:08.450Z,2.30
2022-10-18T08:45:23.325Z,2.80
2022-10-18T08:46:08.369Z,3.20
2022-10-18T08:47:08.406Z,3.60
2022-10-18T08:48:08.460Z,3.70
2022-10-18T08:49:08.389Z,2.70
2022-10-18T08:50:08.432Z,2.70
2022-10-18T08:51:08.357Z,3.40
2022-10-18T08:52:08.395Z,3.20
2022-10-18T08:53:08.290Z,3.30
2022-10-18T08:54:08.288Z,4.90
2022-10-18T08:55:08.268Z,2.50
2022-10-18T08:56:08.299Z,2.60
2022-10-18T08:57:08.326Z,3.80
2022-10-18T08:58:08.382Z,2.00
2022-10-18T08:59:08.309Z,3.40
2022-10-18T09:00:08.235Z,2.20
2022-10-18T09:01:08.566Z,3.60
2022-10-18T09:02:08.216Z,3.30
2022-10-18T09:03:08.333Z,2.50
2022-10-18T09:04:08.164Z,3.80
2022-10-18T09:05:08.195Z,3.30
2022-10-18T09:06:08.141Z,2.50
2022-10-18T09:07:08.238Z,2.30
2022-10-18T09:08:08.222Z,3.40
2022-10-18T09:09:08.260Z,3.30
2022-10-18T09:10:08.217Z,2.40
2022-10-18T09:11:08.188Z,3.80
2022-10-18T09:12:08.186Z,3.20
2022-10-18T09:13:08.107Z,2.30
2022-10-18T09:14:08.131Z,4.30
2022-10-18T09:15:08.527Z,3.90
2022-10-18T09:16:08.169Z,3.50
2022-10-18T09:17:10.369Z,3.20
2022-10-18T09:18:08.266Z,3.30
2022-10-18T09:19:08.097Z,3.70
2022-10-18T09:20:08.316Z,2.40
2022-10-18T09:21:08.143Z,2.80
2022-10-18T09:22:09.708Z,2.40
2022-10-18T09:23:08.055Z,3.10
2022-10-18T09:24:08.035Z,2.50
2022-10-18T09:25:07.986Z,3.10
2022-10-18T09:26:08.312Z,2.90
2022-10-18T09:27:08.015Z,2.30
2022-10-18T09:28:08.019Z,3.80
2022-10-18T09:29:08.119Z,2.90
2022-10-18T09:30:08.024Z,2.80
2022-10-18T09:31:08.000Z,2.40
2022-10-18T09:32:08.249Z,3.10
2022-10-18T09:33:07.942Z,4.40
2022-10-18T09:34:07.873Z,1.80
2022-10-18T09:35:07.901Z,2.40
2022-10-18T09:36:07.857Z,3.20
2022-10-18T09:37:07.942Z,3.00
2022-10-18T09:38:07.953Z,2.30
2022-10-18T09:39:08.212Z,2.70
2022-10-18T09:40:07.896Z,3.10
2022-10-18T09:41:07.796Z,2.80
2022-10-18T09:42:07.790Z,2.30
2022-10-18T09:43:07.778Z,2.40
2022-10-18T09:44:07.794Z,3.70
2022-10-18T09:45:07.884Z,1.80
2022-10-18T09:46:07.748Z,2.90
2022-10-18T09:47:07.806Z,2.20
2022-10-18T09:48:07.891Z,2.40
2022-10-18T09:49:07.783Z,1.70
2022-10-18T09:50:07.723Z,2.50
2022-10-18T09:51:07.767Z,1.90
2022-10-18T09:52:07.953Z,2.10
2022-10-18T09:53:07.680Z,3.30
2022-10-18T09:54:07.673Z,2.40
2022-10-18T09:55:07.747Z,2.80
2022-10-18T09:56:07.690Z,2.70
2022-10-18T09:57:07.713Z,2.80
2022-10-18T09:58:07.699Z,1.50
2022-10-18T09:59:07.969Z,1.10
2022-10-18T10:00:07.995Z,1.70
2022-10-18T10:01:07.641Z,3.70
2022-10-18T10:02:07.811Z,2.50
2022-10-18T10:03:07.692Z,1.30
2022-10-18T10:04:07.556Z,1.60
2022-10-18T10:05:07.743Z,1.80
2022-10-18T10:06:07.563Z,1.60
2022-10-18T10:07:07.581Z,1.80
2022-10-18T10:08:07.624Z,3.00
2022-10-18T10:09:07.621Z,2.10
2022-10-18T10:10:07.542Z,1.70
2022-10-18T10:11:07.557Z,1.50
2022-10-18T10:12:07.810Z,2.10
2022-10-18T10:13:07.483Z,1.80
2022-10-18T10:14:07.654Z,2.10
2022-10-18T10:15:07.643Z,2.30
2022-10-18T10:16:07.464Z,2.20
2022-10-18T10:17:07.513Z,3.70
2022-10-18T10:18:07.473Z,2.30
2022-10-18T10:19:07.736Z,1.50
2022-10-18T10:20:07.484Z,2.30
2022-10-18T10:21:07.484Z,1.90
2022-10-18T10:22:07.441Z,3.20
2022-10-18T10:23:07.487Z,2.10
2022-10-18T10:24:07.384Z,2.20
2022-10-18T10:25:07.467Z,1.20
2022-10-18T10:26:07.402Z,1.70
2022-10-18T10:27:07.766Z,2.00
2022-10-18T10:28:07.389Z,2.30
2022-10-18T10:29:13.155Z,1.90
2022-10-18T10:30:07.621Z,1.50
2022-10-18T10:31:07.360Z,2.20
2022-10-18T10:32:07.530Z,2.30
2022-10-18T10:33:07.434Z,2.60
2022-10-18T10:34:07.609Z,1.40
2022-10-18T10:35:10.031Z,2.00
2022-10-18T10:36:07.254Z,1.80
2022-10-18T10:37:07.222Z,1.80
2022-10-18T10:38:07.260Z,1.50
2022-10-18T10:39:07.291Z,1.70
2022-10-18T10:40:17.758Z,1.70
2022-10-18T10:41:07.198Z,1.80
2022-10-18T10:42:09.312Z,2.10
2022-10-18T10:43:18.101Z,2.40
2022-10-18T10:44:07.187Z,2.90
2022-10-18T10:45:07.226Z,1.50
2022-10-18T10:46:07.469Z,2.40
2022-10-18T10:47:07.195Z,1.60
2022-10-18T10:48:07.188Z,1.20
2022-10-18T10:49:38.705Z,2.00
2022-10-18T10:50:07.190Z,1.30
2022-10-18T10:51:07.274Z,2.10
2022-10-18T10:52:09.232Z,1.40
2022-10-18T10:53:07.147Z,1.60
2022-10-18T10:54:07.122Z,1.90
2022-10-18T10:56:07.073Z,2.00
2022-10-18T10:57:07.050Z,0.90
2022-10-18T10:58:07.033Z,2.30
2022-10-18T10:59:07.116Z,1.30
2022-10-18T11:00:07.049Z,1.60
2022-10-18T11:01:10.523Z,1.40
2022-10-18T11:02:06.982Z,1.20
2022-10-18T11:03:27.232Z,0.80
2022-10-18T11:04:07.005Z,1.40
2022-10-18T11:05:06.918Z,1.40
2022-10-18T11:06:06.975Z,1.30
2022-10-18T11:07:06.948Z,2.70
2022-10-18T11:08:06.908Z,2.40
2022-10-18T11:09:07.068Z,1.20
2022-10-18T11:10:07.251Z,1.60
2022-10-18T11:11:06.869Z,1.40
2022-10-18T11:12:06.983Z,1.20
2022-10-18T11:13:06.928Z,1.00
2022-10-18T11:14:25.354Z,3.00
2022-10-18T11:15:06.998Z,2.00
2022-10-18T11:16:06.885Z,0.90
2022-10-18T11:17:08.223Z,2.10
2022-10-18T11:18:06.915Z,2.60
2022-10-18T11:19:06.835Z,0.90
2022-10-18T11:20:06.891Z,1.10
2022-10-18T11:21:06.956Z,1.20
2022-10-18T11:22:06.819Z,1.60
2022-10-18T11:23:06.751Z,1.00
2022-10-18T11:24:08.066Z,2.30
2022-10-18T11:25:06.792Z,1.90
2022-10-18T11:26:06.787Z,1.50
2022-10-18T11:27:06.834Z,0.80
2022-10-18T11:28:06.758Z,0.80
2022-10-18T11:29:06.741Z,1.00
2022-10-18T11:30:06.723Z,1.10
2022-10-18T11:31:07.016Z,0.80
2022-10-18T11:32:06.641Z,1.20
2022-10-18T11:33:06.827Z,0.70
2022-10-18T11:34:09.661Z,1.60
2022-10-18T11:35:06.707Z,1.30
2022-10-18T11:36:06.769Z,2.80
2022-10-18T11:38:06.596Z,1.30
2022-10-18T11:39:06.748Z,1.30
2022-10-18T11:40:06.645Z,0.80
2022-10-18T11:41:06.716Z,1.00
2022-10-18T11:42:06.610Z,0.70
2022-10-18T11:43:06.589Z,1.30
2022-10-18T11:44:06.641Z,1.30
2022-10-18T11:45:06.692Z,0.70
2022-10-18T11:46:06.620Z,0.90
2022-10-18T11:47:06.583Z,1.30
2022-10-18T11:48:06.571Z,0.80
2022-10-18T11:49:06.560Z,1.10
2022-10-18T11:50:06.590Z,0.50
2022-10-18T11:51:06.637Z,0.90
2022-10-18T11:52:09.002Z,0.90
2022-10-18T11:53:06.476Z,0.60
2022-10-18T11:54:06.483Z,0.80
2022-10-18T11:55:06.536Z,0.80
2022-10-18T11:56:06.837Z,0.60
2022-10-18T11:57:06.536Z,0.60
2022-10-18T11:58:06.527Z,0.60
2022-10-18T11:59:06.448Z,0.70
2022-10-18T12:00:06.526Z,0.80
2022-10-18T12:01:06.438Z,1.10
2022-10-18T12:02:06.402Z,1.40
2022-10-18T12:03:06.588Z,1.00
2022-10-18T12:04:06.389Z,0.70
2022-10-18T12:06:06.353Z,0.50
2022-10-18T12:07:06.392Z,0.50
2022-10-18T12:08:06.648Z,0.70
2022-10-18T12:09:06.366Z,0.50
2022-10-18T12:10:06.365Z,0.70
2022-10-18T12:11:06.916Z,0.80
2022-10-18T12:12:06.284Z,0.60
2022-10-18T12:13:06.409Z,0.70
2022-10-18T12:14:06.250Z,0.50
2022-10-18T12:15:06.383Z,0.40
2022-10-18T12:16:06.209Z,0.60
2022-10-18T12:17:39.778Z,0.30
2022-10-18T12:18:06.317Z,0.40
2022-10-18T12:19:06.290Z,0.20
2022-10-18T12:20:06.169Z,0.50
2022-10-18T12:21:07.726Z,0.70
2022-10-18T12:22:06.180Z,0.90
2022-10-18T12:23:06.226Z,1.00
2022-10-18T12:24:06.179Z,0.60
2022-10-18T12:25:06.195Z,0.70
2022-10-18T12:26:06.094Z,0.60
2022-10-18T12:27:06.179Z,0.90
2022-10-18T12:28:06.208Z,0.60
2022-10-18T12:29:06.177Z,0.40
2022-10-18T12:30:06.104Z,0.80
2022-10-18T12:31:06.117Z,0.50
2022-10-18T12:32:06.129Z,0.30
2022-10-18T12:33:26.574Z,1.10
2022-10-18T12:34:06.775Z,0.30
2022-10-18T12:35:06.049Z,0.70
2022-10-18T12:36:06.056Z,0.70
2022-10-18T12:37:06.032Z,0.60
2022-10-18T12:38:06.023Z,0.30
2022-10-18T12:39:06.160Z,0.20
2022-10-18T12:40:12.128Z,0.40
2022-10-18T12:41:06.313Z,0.70
2022-10-18T12:42:05.964Z,0.30
2022-10-18T12:43:05.993Z,0.30
2022-10-18T12:44:05.940Z,0.40
2022-10-18T12:45:06.478Z,0.30
2022-10-18T12:46:10.728Z,0.90
2022-10-18T12:47:05.979Z,0.20
2022-10-18T12:48:05.979Z,0.40
2022-10-18T12:49:05.971Z,0.60
2022-10-18T12:50:05.950Z,0.50
2022-10-18T12:51:05.937Z,0.40
2022-10-18T12:52:05.960Z,0.40
2022-10-18T12:53:06.221Z,0.80
2022-10-18T12:54:06.730Z,0.40
2022-10-18T12:55:05.823Z,0.60
2022-10-18T12:56:05.895Z,0.50
2022-10-18T12:57:05.943Z,0.30
2022-10-18T12:58:05.890Z,0.40
2022-10-18T12:59:05.891Z,0.30
2022-10-18T13:00:05.798Z,0.70
2022-10-18T13:01:05.859Z,0.60
2022-10-18T13:02:05.810Z,0.80
2022-10-18T13:03:05.829Z,0.40
2022-10-18T13:04:05.780Z,0.20
2022-10-18T13:05:12.345Z,0.60
2022-10-18T13:06:06.870Z,0.60
2022-10-18T13:07:05.753Z,0.60
2022-10-18T13:08:05.828Z,0.20
2022-10-18T13:09:05.763Z,0.50
2022-10-18T13:10:05.790Z,0.20
2022-10-18T13:11:05.637Z,0.30
2022-10-18T13:12:05.731Z,0.50
2022-10-18T13:13:23.831Z,0.40
2022-10-18T13:14:05.680Z,0.90
2022-10-18T13:15:24.275Z,0.70
2022-10-18T13:16:05.636Z,0.30
2022-10-18T13:17:05.962Z,0.40
2022-10-18T13:18:05.621Z,0.70
2022-10-18T13:19:05.648Z,0.30
2022-10-18T13:20:25.098Z,0.20
2022-10-18T13:21:05.801Z,0.20
2022-10-18T13:22:05.554Z,0.80
2022-10-18T13:23:05.620Z,0.60